Terminal Aerodrome Forecast
Issued by NWS

Home | Current Version | Previous Version | Text Only | Print | Product List | Glossary On
Versions: 1 2 3 4 5 6 7 8 9 10 11 12 13
318
FTUS42 KTAE 120401 AAA
TAFDHN
TAF AMD
KDHN 120401Z 1204/1224 22009KT P6SM SCT020
      TEMPO 1205/1209 BKN019
     FM120900 23004KT 4SM BR SCT003 SCT015
     FM121500 27012G18KT P6SM SCT250=

USA.gov is the U.S. government's official web portal to all federal, state and local government web resources and services.